Time;durP1;ratioP1;P1;durP2;ratioP2;P2;SDS_P1;SDS_P2;PMS_P1;PMS_P2;Temp;Humidity;BMP_temperature;BMP_pressure;BME280_temperature;BME280_humidity;BME280_pressure;Samples;Min_cycle;Max_cycle;Signal;HPM_P1;HPM_P2
2021/12/20 00:02:03;;;;;;;24.13;13.73;;;3.90;99.90;;;4.08;73.06;98442.25;5027588;28;20061;-40
2021/12/20 00:04:31;;;;;;;25.03;14.60;;;3.90;99.90;;;4.10;73.25;98435.09;5028336;28;20394;-40
2021/12/20 00:06:59;;;;;;;25.23;13.80;;;3.90;99.90;;;4.12;72.63;98427.94;5027258;28;20041;-40
2021/12/20 00:09:27;;;;;;;26.57;12.63;;;4.00;99.90;;;4.18;73.46;98431.13;5028792;28;20057;-39
2021/12/20 00:11:55;;;;;;;24.07;13.93;;;4.00;99.90;;;4.20;73.43;98427.44;5028694;28;20066;-40
2021/12/20 00:14:23;;;;;;;27.93;14.53;;;4.00;99.90;;;4.23;73.01;98416.69;5028400;28;20059;-40
2021/12/20 00:16:51;;;;;;;24.73;14.00;;;4.10;99.90;;;4.23;72.78;98414.06;5027820;28;20049;-40
2021/12/20 00:19:19;;;;;;;23.93;13.97;;;4.00;99.90;;;4.22;73.39;98419.44;5027943;28;20352;-40
2021/12/20 00:21:47;;;;;;;23.97;13.90;;;4.00;99.90;;;4.21;72.40;98418.59;5028173;28;20041;-40
2021/12/20 00:24:14;;;;;;;24.27;14.07;;;4.00;99.90;;;4.20;72.66;98418.69;5026945;28;20052;-40
2021/12/20 00:26:42;;;;;;;29.10;13.90;;;3.90;99.90;;;4.18;72.67;98425.84;5026840;28;20057;-40
2021/12/20 00:29:10;;;;;;;22.60;12.77;;;3.90;99.90;;;4.14;72.90;98418.13;5027719;28;20331;-40
2021/12/20 00:31:38;;;;;;;28.10;14.10;;;3.80;99.90;;;4.16;73.25;98404.88;5028926;28;20067;-40
2021/12/20 00:34:05;;;;;;;21.07;12.73;;;3.90;99.90;;;4.20;72.81;98397.59;5027556;28;20504;-40
2021/12/20 00:36:34;;;;;;;21.73;13.27;;;4.00;99.90;;;4.24;72.56;98393.81;5027063;28;20087;-40
2021/12/20 00:41:49;;;;;;;25.60;13.00;;;4.10;99.90;;;4.30;73.06;98399.53;5028691;28;20052;-40
2021/12/20 00:44:17;;;;;;;20.80;11.87;;;4.10;99.90;;;4.36;73.12;98397.41;5027643;28;20048;-40
2021/12/20 00:46:54;;;;;;;21.03;12.47;;;4.20;99.90;;;4.39;73.28;98399.84;5027509;28;20041;-40
2021/12/20 00:49:22;;;;;;;22.50;12.07;;;4.20;99.90;;;4.40;72.99;98399.75;5028072;28;20063;-40
2021/12/20 00:51:50;;;;;;;24.50;13.67;;;4.20;99.90;;;4.44;73.28;98397.72;5027204;28;20060;-40
2021/12/20 00:54:17;;;;;;;20.53;12.47;;;4.30;99.90;;;4.42;72.93;98397.00;5026828;28;20217;-40
2021/12/20 00:56:45;;;;;;;22.07;12.13;;;4.20;99.90;;;4.40;73.22;98396.25;5026948;28;20041;-40
2021/12/20 00:59:13;;;;;;;19.10;10.83;;;4.20;99.90;;;4.39;72.94;98386.66;5027445;28;20356;-40
2021/12/20 01:01:41;;;;;;;21.90;11.80;;;4.20;99.90;;;4.40;72.81;98390.97;5028198;28;20051;-40
2021/12/20 01:04:09;;;;;;;23.80;12.57;;;4.20;99.90;;;4.42;73.02;98389.94;5027920;28;20041;-40
2021/12/20 01:06:37;;;;;;;17.97;11.30;;;4.20;99.90;;;4.40;73.28;98386.56;5027438;28;20247;-40
2021/12/20 01:09:05;;;;;;;25.20;12.43;;;4.20;99.90;;;4.42;72.26;98379.41;5027961;28;20049;-40
2021/12/20 01:11:38;;;;;;;18.03;10.90;;;4.20;99.90;;;4.42;72.78;98386.44;5027388;28;20236;-40
2021/12/20 01:14:06;;;;;;;21.73;11.63;;;4.20;99.90;;;4.41;72.31;98392.69;5026552;28;20058;-40
2021/12/20 01:16:34;;;;;;;20.77;11.53;;;4.20;99.90;;;4.43;73.07;98382.88;5023518;28;20057;-40
2021/12/20 01:19:02;;;;;;;18.83;10.70;;;4.20;99.90;;;4.47;72.86;98387.81;5026896;28;20049;-40
2021/12/20 01:21:30;;;;;;;18.70;11.43;;;4.30;99.90;;;4.45;72.88;98380.97;5027071;28;20068;-40
2021/12/20 01:23:58;;;;;;;18.87;10.93;;;4.20;99.90;;;4.43;72.38;98373.16;5027164;28;20259;-40
2021/12/20 01:26:26;;;;;;;20.47;10.97;;;4.30;99.90;;;4.47;73.06;98379.91;5025590;28;20240;-39
2021/12/20 01:28:54;;;;;;;21.30;11.43;;;4.30;99.90;;;4.49;72.61;98379.81;5027496;28;20340;-40
2021/12/20 01:31:22;;;;;;;18.90;11.73;;;4.30;99.90;;;4.48;72.51;98381.59;5027075;28;20351;-40
2021/12/20 01:33:50;;;;;;;21.87;11.93;;;4.20;99.90;;;4.45;72.58;98381.81;5026410;28;20057;-39
2021/12/20 01:36:18;;;;;;;23.37;11.67;;;4.20;99.90;;;4.47;72.09;98397.53;5025803;28;20418;-40
2021/12/20 01:38:46;;;;;;;21.13;11.97;;;4.20;99.90;;;4.45;72.30;98383.59;5026529;28;20045;-40
2021/12/20 01:41:14;;;;;;;23.23;13.53;;;4.20;99.90;;;4.43;72.33;98380.22;5027366;28;20068;-40
2021/12/20 01:43:42;;;;;;;22.53;11.60;;;4.20;99.90;;;4.46;72.53;98380.88;5026038;28;20631;-40
2021/12/20 01:46:09;;;;;;;23.77;13.03;;;4.20;99.90;;;4.48;72.48;98376.34;5026554;28;20551;-40
2021/12/20 01:48:39;;;;;;;20.87;12.03;;;4.20;99.90;;;4.50;72.32;98368.31;5026155;28;20045;-40
2021/12/20 01:53:38;;;;;;;20.70;12.17;;;4.20;99.90;;;4.51;72.02;98368.19;5026454;28;20068;-40
2021/12/20 01:56:08;;;;;;;21.33;11.20;;;4.20;99.90;;;4.53;72.45;98365.47;5025802;28;20052;-40
2021/12/20 01:58:37;;;;;;;23.83;13.57;;;4.30;99.90;;;4.55;71.78;98360.91;5025571;28;20067;-40
2021/12/20 02:03:43;;;;;;;21.20;10.83;;;4.30;99.90;;;4.54;72.48;98359.25;5025902;28;20049;-40
2021/12/20 02:06:22;;;;;;;19.57;10.73;;;4.30;99.90;;;4.53;72.63;98361.03;5026149;28;20336;-40
2021/12/20 02:08:50;;;;;;;20.77;11.00;;;4.30;99.90;;;4.53;72.70;98363.66;5023647;28;20046;-40
2021/12/20 02:11:20;;;;;;;19.50;10.80;;;4.30;99.90;;;4.56;71.83;98356.50;5025545;28;20056;-40
2021/12/20 02:13:49;;;;;;;18.87;10.27;;;4.30;99.90;;;4.59;72.49;98356.28;5025865;28;20057;-40
2021/12/20 02:16:19;;;;;;;18.07;10.17;;;4.30;99.90;;;4.57;71.65;98360.81;5025423;28;20065;-40
2021/12/20 02:18:48;;;;;;;17.63;9.77;;;4.30;99.90;;;4.56;72.15;98364.44;5026509;28;20485;-40
2021/12/20 02:21:16;;;;;;;19.63;9.63;;;4.30;99.90;;;4.58;72.36;98355.44;5029427;28;20055;-40
2021/12/20 02:23:47;;;;;;;19.67;11.40;;;4.30;99.90;;;4.60;71.68;98353.53;5030560;28;20052;-40
2021/12/20 02:26:18;;;;;;;18.43;10.10;;;4.40;99.90;;;4.61;72.16;98349.09;5029902;28;20059;-40
2021/12/20 02:28:48;;;;;;;20.53;11.27;;;4.40;99.90;;;4.60;72.58;98358.81;5029474;28;20354;-40
2021/12/20 02:39:24;;;;;;;24.43;12.73;;;4.20;99.90;;;4.37;71.98;98363.03;5030943;28;20256;-39
2021/12/20 02:41:52;;;;;;;24.20;12.07;;;4.00;99.90;;;4.34;72.17;98360.59;5029242;28;20419;-40
2021/12/20 02:44:22;;;;;;;22.90;12.37;;;4.00;99.90;;;4.27;72.41;98352.28;5030385;28;20347;-40
2021/12/20 02:49:27;;;;;;;24.80;12.10;;;4.00;99.90;;;4.32;72.15;98351.94;5029664;28;20060;-40
2021/12/20 02:52:05;;;;;;;24.60;12.80;;;4.00;99.90;;;4.33;71.76;98359.75;5029258;28;20041;-40
2021/12/20 02:54:34;;;;;;;21.77;12.73;;;4.10;99.90;;;4.38;72.01;98358.59;5030160;28;20335;-40
2021/12/20 02:57:03;;;;;;;22.83;13.10;;;4.10;99.90;;;4.41;72.22;98351.31;5029105;28;20492;-40
2021/12/20 02:59:31;;;;;;;26.37;14.23;;;4.20;99.90;;;4.41;72.15;98355.78;5031292;28;20049;-40
2021/12/20 03:02:05;;;;;;;27.00;13.50;;;4.10;99.90;;;4.40;71.97;98344.38;5029319;28;20340;-40
2021/12/20 03:04:34;;;;;;;22.55;11.15;;;4.10;99.90;;;4.42;71.53;98338.97;5028928;28;20037;-40
2021/12/20 03:07:10;;;;;;;25.37;15.10;;;4.10;99.90;;;4.42;72.54;98341.63;5029022;28;20253;-39
2021/12/20 03:09:45;;;;;;;24.30;13.87;;;4.10;99.90;;;4.46;72.52;98351.00;5029297;28;20053;-40
2021/12/20 03:12:13;;;;;;;24.80;14.10;;;4.20;99.90;;;4.46;72.25;98338.69;5028730;28;20344;-40
2021/12/20 03:14:44;;;;;;;25.60;13.20;;;4.20;99.90;;;4.47;72.03;98350.06;5029498;28;20057;-40
2021/12/20 03:17:12;;;;;;;24.00;13.50;;;4.10;99.90;;;4.47;71.79;98342.16;5028986;28;20271;-40
2021/12/20 03:19:40;;;;;;;27.70;14.77;;;4.10;99.90;;;4.47;72.48;98350.06;5028919;28;20279;-40
2021/12/20 03:22:09;;;;;;;28.97;14.17;;;4.20;99.90;;;4.47;71.68;98350.91;5029793;28;20059;-40
2021/12/20 03:24:36;;;;;;;28.30;15.33;;;4.10;99.90;;;4.46;71.78;98341.31;5028456;28;20053;-40
2021/12/20 03:27:06;;;;;;;28.43;14.57;;;4.10;99.90;;;4.47;71.81;98342.16;5028573;28;20054;-40
2021/12/20 03:29:34;;;;;;;31.33;15.23;;;4.20;99.90;;;4.48;72.15;98335.94;5029109;28;20050;-39
2021/12/20 03:32:02;;;;;;;26.87;15.30;;;4.20;99.90;;;4.49;71.54;98342.88;5027877;28;20045;-39
2021/12/20 03:34:30;;;;;;;28.53;14.47;;;4.20;99.90;;;4.49;71.68;98346.38;5028871;28;20230;-39
2021/12/20 03:36:58;;;;;;;25.67;14.37;;;4.20;99.90;;;4.48;71.60;98339.41;5029432;28;20460;-39
2021/12/20 03:39:25;;;;;;;27.33;13.97;;;4.20;99.90;;;4.46;72.01;98343.09;5029660;28;20263;-39
2021/12/20 03:41:53;;;;;;;29.13;14.33;;;4.10;99.90;;;4.46;72.10;98345.72;5028586;28;20045;-39
2021/12/20 03:44:21;;;;;;;29.37;14.57;;;4.10;99.90;;;4.44;72.43;98350.25;5028211;28;20057;-39
2021/12/20 03:46:49;;;;;;;31.57;14.10;;;4.10;99.90;;;4.44;72.35;98348.50;5027635;28;20255;-39
2021/12/20 03:49:17;;;;;;;29.80;15.23;;;4.20;99.90;;;4.47;71.76;98350.91;5028118;28;20065;-39
2021/12/20 03:51:45;;;;;;;29.40;14.97;;;4.20;99.90;;;4.47;71.57;98343.00;5028335;28;20053;-39
2021/12/20 03:54:13;;;;;;;29.00;16.17;;;4.20;99.90;;;4.46;72.32;98349.22;5028338;28;20076;-39
2021/12/20 03:56:40;;;;;;;44.80;22.87;;;4.20;99.90;;;4.49;72.32;98354.28;5028466;28;20054;-39
2021/12/20 03:59:09;;;;;;;36.20;18.77;;;4.20;99.90;;;4.50;72.59;98357.78;5028249;28;20063;-39
2021/12/20 04:01:36;;;;;;;30.50;16.03;;;4.20;99.90;;;4.48;71.96;98343.84;5029203;28;20049;-39
2021/12/20 04:04:04;;;;;;;28.07;14.33;;;4.10;99.90;;;4.47;72.58;98348.25;5027185;28;20325;-39
2021/12/20 04:06:35;;;;;;;28.43;14.40;;;4.10;99.90;;;4.45;72.09;98342.25;5028467;28;20055;-39
2021/12/20 04:09:04;;;;;;;28.03;15.30;;;4.10;99.90;;;4.46;71.85;98348.38;5027937;28;20309;-39
2021/12/20 04:11:33;;;;;;;35.17;16.67;;;4.20;99.90;;;4.50;71.84;98353.34;5028848;28;20055;-39
2021/12/20 04:14:01;;;;;;;27.47;14.77;;;4.20;99.90;;;4.53;71.62;98349.63;5027623;28;20356;-39
2021/12/20 04:16:29;;;;;;;29.73;16.40;;;4.20;99.90;;;4.56;72.27;98349.44;5027714;28;20060;-39
2021/12/20 04:18:57;;;;;;;29.03;15.13;;;4.30;99.90;;;4.57;71.91;98352.91;5026341;28;20248;-39
2021/12/20 04:21:25;;;;;;;28.17;14.40;;;4.30;99.90;;;4.58;71.63;98347.53;5028255;28;20052;-39
2021/12/20 04:23:53;;;;;;;33.13;17.40;;;4.30;99.90;;;4.57;72.34;98345.84;5027062;28;20057;-39
2021/12/20 04:26:21;;;;;;;30.17;16.70;;;4.30;99.90;;;4.56;72.06;98341.53;5028822;28;20053;-39
2021/12/20 04:28:49;;;;;;;31.30;16.23;;;4.30;99.90;;;4.55;71.55;98342.47;5027581;28;20048;-39
2021/12/20 04:31:17;;;;;;;29.67;15.70;;;4.20;99.90;;;4.56;71.83;98343.34;5029068;28;20227;-39
2021/12/20 04:33:44;;;;;;;29.70;14.50;;;4.20;99.90;;;4.53;72.55;98347.00;5027361;28;20738;-39
2021/12/20 04:36:12;;;;;;;32.27;15.70;;;4.20;99.90;;;4.50;71.53;98341.97;5026927;28;20348;-39
2021/12/20 04:38:41;;;;;;;30.00;14.77;;;4.10;99.90;;;4.49;72.00;98349.00;5028683;28;20371;-39
2021/12/20 04:41:09;;;;;;;29.53;14.47;;;4.10;99.90;;;4.51;72.19;98354.19;5027558;28;20067;-39
2021/12/20 04:43:37;;;;;;;28.50;15.27;;;4.20;99.90;;;4.51;72.17;98351.53;5027057;28;20053;-39
2021/12/20 04:46:05;;;;;;;31.83;14.87;;;4.10;99.90;;;4.50;72.11;98347.22;5027551;28;20267;-39
2021/12/20 04:48:33;;;;;;;29.07;14.70;;;4.20;99.90;;;4.48;71.92;98346.50;5027875;28;20049;-39
2021/12/20 04:51:01;;;;;;;26.47;15.23;;;4.10;99.90;;;4.49;72.48;98349.00;5028544;28;20221;-39
2021/12/20 04:53:28;;;;;;;27.47;13.77;;;4.20;99.90;;;4.51;72.63;98346.25;5025000;28;20057;-39
2021/12/20 04:55:56;;;;;;;26.87;13.93;;;4.20;99.90;;;4.50;71.69;98350.69;5026658;28;20179;-39
2021/12/20 04:58:24;;;;;;;25.57;15.10;;;4.20;99.90;;;4.50;71.92;98345.44;5027789;28;20049;-39
2021/12/20 05:00:52;;;;;;;26.30;16.33;;;4.20;99.90;;;4.53;72.21;98352.28;5027985;28;20237;-40
2021/12/20 05:03:20;;;;;;;31.73;16.97;;;4.20;99.90;;;4.53;72.27;98347.00;5026964;28;20053;-39
2021/12/20 05:05:48;;;;;;;27.93;15.63;;;4.30;99.90;;;4.56;71.89;98349.44;5026563;28;20053;-39
2021/12/20 05:08:15;;;;;;;31.47;14.17;;;4.30;99.90;;;4.57;71.72;98347.63;5027098;28;20080;-39
2021/12/20 05:10:43;;;;;;;27.47;14.30;;;4.20;99.90;;;4.56;71.53;98348.59;5027011;28;20251;-39
2021/12/20 05:13:13;;;;;;;26.07;16.47;;;4.20;99.90;;;4.57;72.04;98343.19;5026729;28;20049;-39
2021/12/20 05:15:45;;;;;;;28.90;17.33;;;4.30;99.90;;;4.57;72.34;98343.19;5025494;28;20049;-39
2021/12/20 05:18:13;;;;;;;26.03;14.37;;;4.30;99.90;;;4.58;71.63;98339.63;5027036;28;20063;-39
2021/12/20 05:20:41;;;;;;;26.47;13.60;;;4.30;99.90;;;4.54;71.48;98346.91;5027300;28;20053;-39
2021/12/20 05:23:09;;;;;;;24.93;12.20;;;4.20;99.90;;;4.47;71.69;98352.69;5026476;28;20356;-39
2021/12/20 05:25:38;;;;;;;29.10;16.93;;;4.10;99.90;;;4.38;72.12;98354.19;5026926;28;20055;-39
2021/12/20 05:28:07;;;;;;;26.80;14.87;;;4.10;99.90;;;4.34;71.75;98350.06;5025983;28;20049;-39
2021/12/20 05:30:36;;;;;;;27.27;14.37;;;4.00;99.90;;;4.32;71.48;98352.81;5027139;28;20055;-39
2021/12/20 05:33:05;;;;;;;28.50;13.07;;;4.00;99.90;;;4.33;71.52;98354.50;5027069;28;20053;-39
2021/12/20 05:35:33;;;;;;;28.37;14.30;;;4.00;99.90;;;4.33;71.89;98349.22;5026292;28;20056;-39
2021/12/20 05:38:01;;;;;;;25.87;13.13;;;4.00;99.90;;;4.29;71.71;98354.81;5025354;28;20057;-39
2021/12/20 05:40:29;;;;;;;23.67;12.70;;;4.00;99.90;;;4.28;72.41;98351.31;5027823;28;20267;-39
2021/12/20 05:42:57;;;;;;;24.47;12.77;;;4.00;99.90;;;4.27;72.35;98361.97;5026766;28;20057;-39
2021/12/20 05:45:24;;;;;;;24.93;12.77;;;4.00;99.90;;;4.25;72.30;98350.69;5026622;28;20042;-39
2021/12/20 05:47:52;;;;;;;25.03;12.50;;;4.00;99.90;;;4.28;72.24;98353.94;5025926;28;20060;-39
2021/12/20 05:50:22;;;;;;;26.07;13.67;;;4.00;99.90;;;4.29;71.74;98354.81;5027615;28;20057;-39
2021/12/20 05:52:50;;;;;;;24.70;14.37;;;4.00;99.90;;;4.30;71.91;98361.75;5024549;28;20059;-39
2021/12/20 05:55:19;;;;;;;23.90;13.80;;;4.00;99.90;;;4.26;71.79;98362.91;5025252;28;20054;-39
2021/12/20 05:57:47;;;;;;;24.97;15.10;;;4.00;99.90;;;4.26;72.26;98379.56;5026077;28;20049;-39
2021/12/20 06:00:19;;;;;;;21.73;11.80;;;4.00;99.90;;;4.31;72.60;98384.56;5026739;28;20057;-39
2021/12/20 06:02:51;;;;;;;27.00;13.73;;;4.00;99.90;;;4.37;72.04;98372.75;5026877;28;20233;-39
2021/12/20 06:05:20;;;;;;;23.73;14.87;;;4.10;99.90;;;4.40;71.91;98372.53;5026340;28;20049;-39
2021/12/20 06:07:48;;;;;;;27.17;15.00;;;4.10;99.90;;;4.42;72.38;98381.16;5026321;28;20045;-39
2021/12/20 06:10:18;;;;;;;28.77;14.87;;;4.20;99.90;;;4.45;72.16;98373.91;5026618;28;20079;-39
2021/12/20 06:12:46;;;;;;;32.10;15.67;;;4.20;99.90;;;4.46;71.94;98372.97;5025264;28;20342;-39
2021/12/20 06:15:15;;;;;;;29.17;16.40;;;4.20;99.90;;;4.47;71.62;98372.00;5025732;28;20063;-39
2021/12/20 06:17:43;;;;;;;27.93;14.30;;;4.20;99.90;;;4.50;71.73;98370.97;5027188;28;20053;-39
2021/12/20 06:20:13;;;;;;;27.33;14.13;;;4.20;99.90;;;4.49;72.69;98369.25;5027495;28;20120;-39
2021/12/20 06:22:41;;;;;;;27.13;15.23;;;4.20;99.90;;;4.49;71.84;98375.38;5026609;28;20067;-39
2021/12/20 06:25:10;;;;;;;23.77;14.13;;;4.20;99.90;;;4.51;71.96;98370.84;5026496;28;20045;-39
2021/12/20 06:27:39;;;;;;;25.97;14.17;;;4.20;99.90;;;4.52;72.54;98376.97;5026787;28;20037;-39
2021/12/20 06:30:09;;;;;;;22.50;12.80;;;4.30;99.90;;;4.53;72.44;98371.56;5026487;28;20260;-39
2021/12/20 06:32:39;;;;;;;23.57;12.30;;;4.20;99.90;;;4.55;72.50;98374.09;5025832;28;20752;-39
2021/12/20 06:35:27;;;;;;;23.63;12.03;;;4.40;99.90;;;4.56;72.41;98361.78;5026620;28;20061;-39
2021/12/20 06:38:01;;;;;;;24.03;11.37;;;4.20;99.90;;;4.53;72.13;98368.09;5026244;28;20247;-39
2021/12/20 06:40:33;;;;;;;21.57;12.27;;;4.30;99.90;;;4.52;71.75;98369.91;5025457;28;20283;-39
2021/12/20 06:43:03;;;;;;;18.00;11.03;;;4.20;99.90;;;4.49;71.94;98372.72;5026546;28;20064;-39
2021/12/20 06:45:33;;;;;;;19.97;12.33;;;4.20;99.90;;;4.43;72.31;98372.31;5025566;28;20038;-39
2021/12/20 06:48:00;;;;;;;21.97;11.40;;;4.10;99.90;;;4.26;71.78;98370.81;5026503;28;20045;-38
2021/12/20 06:50:28;;;;;;;24.80;13.90;;;3.90;99.90;;;4.26;72.34;98379.56;5026130;28;20084;-39
2021/12/20 06:52:56;;;;;;;19.07;10.70;;;3.90;99.90;;;4.26;72.50;98378.72;5026247;28;20046;-38
2021/12/20 06:55:24;;;;;;;22.10;12.17;;;3.90;99.90;;;4.24;72.01;98378.81;5025125;28;20057;-39
2021/12/20 06:57:53;;;;;;;23.07;11.87;;;3.90;99.90;;;4.20;72.14;98387.91;5026150;28;20256;-38
2021/12/20 07:00:23;;;;;;;22.07;11.90;;;3.90;99.90;;;4.18;72.69;98383.69;5024573;28;20065;-39
2021/12/20 07:02:51;;;;;;;21.17;11.63;;;3.90;99.90;;;4.20;72.72;98393.16;5025751;28;20053;-39
2021/12/20 07:05:23;;;;;;;21.33;11.60;;;3.90;99.90;;;4.24;71.50;98394.66;5028230;28;20052;-38
2021/12/20 07:07:51;;;;;;;20.67;12.53;;;4.00;99.90;;;4.27;72.45;98390.97;5028899;28;20042;-39
2021/12/20 07:10:19;;;;;;;22.97;12.30;;;4.00;99.90;;;4.30;72.01;98396.03;5028770;28;20184;-39
2021/12/20 07:12:48;;;;;;;20.53;12.90;;;4.00;99.90;;;4.33;72.14;98401.94;5028971;28;20057;-38
2021/12/20 07:15:16;;;;;;;18.30;11.07;;;4.10;99.90;;;4.37;72.08;98404.38;5030160;28;20041;-38
2021/12/20 07:17:44;;;;;;;23.10;11.67;;;4.10;99.90;;;4.36;72.29;98400.88;5026767;28;20075;-38
2021/12/20 07:20:12;;;;;;;23.87;12.87;;;4.10;99.90;;;4.35;71.94;98407.13;5029695;28;20050;-38
2021/12/20 07:22:40;;;;;;;23.10;14.37;;;4.10;99.90;;;4.30;71.85;98412.72;5027730;28;20064;-38
2021/12/20 07:25:09;;;;;;;23.57;12.67;;;4.00;99.90;;;4.30;71.96;98414.47;5029232;28;20053;-38
2021/12/20 07:27:38;;;;;;;22.30;12.10;;;4.00;99.90;;;4.32;71.78;98410.81;5028452;28;20059;-38
2021/12/20 07:30:08;;;;;;;24.47;12.43;;;4.00;99.90;;;4.34;72.08;98406.28;5028411;28;20366;-38
2021/12/20 07:32:36;;;;;;;27.30;14.00;;;4.10;99.90;;;4.33;72.34;98404.56;5027086;28;20049;-38
2021/12/20 07:35:04;;;;;;;30.40;15.70;;;4.00;99.90;;;4.33;71.72;98412.47;5026942;28;20124;-38
2021/12/20 07:37:32;;;;;;;24.27;14.30;;;4.00;99.90;;;4.34;72.39;98413.31;5023747;28;20084;-38
2021/12/20 07:40:01;;;;;;;25.97;13.80;;;4.00;99.90;;;4.36;72.32;98411.44;5028276;28;20041;-38
2021/12/20 07:42:28;;;;;;;21.73;13.77;;;4.10;99.90;;;4.39;71.95;98411.22;5029159;28;20366;-39
2021/12/20 07:44:59;;;;;;;24.67;13.47;;;4.10;99.90;;;4.42;71.80;98415.44;5029218;28;20065;-38
2021/12/20 07:47:48;;;;;;;28.13;14.73;;;4.20;99.90;;;4.46;71.73;98417.78;5026824;28;20041;-38
2021/12/20 07:50:19;;;;;;;27.43;14.17;;;4.20;99.90;;;4.49;72.05;98420.19;5027930;28;20057;-38
2021/12/20 07:52:47;;;;;;;28.10;15.67;;;4.20;99.90;;;4.48;71.54;98422.97;5028570;28;20053;-38
2021/12/20 07:55:16;;;;;;;25.43;13.90;;;4.20;99.90;;;4.46;71.60;98420.44;5027160;28;20049;-39
2021/12/20 07:57:44;;;;;;;26.00;13.43;;;4.20;99.90;;;4.48;71.84;98425.59;5028927;28;20054;-38
2021/12/20 08:00:15;;;;;;;31.87;15.27;;;4.20;99.90;;;4.45;71.84;98418.72;5028119;28;20057;-38
2021/12/20 08:02:44;;;;;;;29.23;15.30;;;4.20;99.90;;;4.39;71.78;98423.56;5027134;28;20263;-37
2021/12/20 08:05:14;;;;;;;29.60;16.10;;;4.10;99.90;;;4.39;72.07;98419.13;5027059;28;20064;-38
2021/12/20 08:07:42;;;;;;;28.40;15.20;;;4.10;99.90;;;4.36;71.85;98421.13;5026866;28;20087;-38
2021/12/20 08:10:11;;;;;;;27.60;14.40;;;4.10;99.90;;;4.36;71.64;98419.34;5028803;28;20053;-38
2021/12/20 08:12:38;;;;;;;28.53;13.63;;;4.10;99.90;;;4.36;72.02;98424.59;5028791;28;20049;-38
2021/12/20 08:15:07;;;;;;;25.00;13.93;;;4.10;99.90;;;4.36;72.02;98424.59;5027614;28;20045;-38
2021/12/20 08:17:35;;;;;;;31.87;14.47;;;4.10;99.90;;;4.39;72.21;98427.06;5027184;28;20225;-39
2021/12/20 08:20:05;;;;;;;24.57;13.80;;;4.10;99.90;;;4.41;71.94;98421.69;5028866;28;20057;-39
2021/12/20 08:22:33;;;;;;;23.80;13.87;;;4.10;99.90;;;4.40;71.89;98427.88;5027742;28;20057;-39
2021/12/20 08:25:01;;;;;;;26.57;13.50;;;4.10;99.90;;;4.42;72.17;98426.84;5026174;28;20381;-40
2021/12/20 08:27:29;;;;;;;28.00;15.83;;;4.10;99.90;;;4.40;72.05;98428.75;5035507;28;20045;-39
2021/12/20 08:29:57;;;;;;;27.13;16.13;;;4.10;99.90;;;4.40;71.93;98426.13;5037251;28;20318;-39
2021/12/20 08:32:26;;;;;;;30.93;16.10;;;4.10;99.90;;;4.43;72.12;98435.59;5037758;28;20057;-39
2021/12/20 08:34:54;;;;;;;29.83;16.93;;;4.10;99.90;;;4.49;72.46;98428.09;5036376;28;20049;-39
2021/12/20 08:37:23;;;;;;;33.67;17.63;;;4.30;99.90;;;4.56;71.94;98433.81;5026841;28;20046;-39
2021/12/20 08:39:51;;;;;;;27.53;16.73;;;4.40;99.90;;;4.62;71.96;98436.03;5008480;28;20068;-39
2021/12/20 08:42:20;;;;;;;33.10;17.37;;;4.40;99.90;;;4.66;71.87;98439.31;5007441;28;20058;-39
2021/12/20 08:44:49;;;;;;;40.07;18.13;;;4.50;99.90;;;4.66;72.28;98441.97;5008177;28;20725;-39
2021/12/20 08:47:17;;;;;;;35.83;17.77;;;4.50;99.90;;;4.64;72.17;98435.94;5007238;28;20244;-39
2021/12/20 08:49:45;;;;;;;31.80;16.43;;;4.40;99.90;;;4.66;72.51;98440.16;5007736;28;20060;-39
2021/12/20 08:52:13;;;;;;;30.30;15.57;;;4.40;99.90;;;4.63;71.82;98439.50;5007076;28;20046;-39
2021/12/20 08:54:42;;;;;;;29.30;15.07;;;4.40;99.90;;;4.62;72.02;98441.31;5007575;28;20282;-39
2021/12/20 08:57:10;;;;;;;28.27;15.47;;;4.40;99.90;;;4.65;72.19;98454.31;5007307;28;20556;-39
2021/12/20 08:59:38;;;;;;;25.07;13.73;;;4.40;99.90;;;4.70;72.11;98456.63;5015824;28;20049;-39
2021/12/20 09:02:07;;;;;;;25.23;15.63;;;4.50;99.90;;;4.76;72.40;98461.47;5033599;28;20041;-39
2021/12/20 09:04:36;;;;;;;26.90;14.63;;;4.50;99.90;;;4.79;72.20;98460.41;5037521;28;20049;-39
2021/12/20 09:07:07;;;;;;;23.73;15.00;;;4.60;99.90;;;4.83;72.62;98449.56;5033585;28;20040;-39
2021/12/20 09:09:39;;;;;;;29.63;17.40;;;4.60;99.90;;;4.87;71.72;98455.47;5035343;28;20053;-39
2021/12/20 09:12:08;;;;;;;27.13;16.50;;;4.70;99.90;;;4.89;72.20;98464.13;5037529;28;20051;-40
2021/12/20 09:14:37;;;;;;;28.30;16.33;;;4.70;99.90;;;4.91;71.50;98455.16;5033991;28;20053;-39
2021/12/20 09:17:05;;;;;;;28.27;16.50;;;4.70;99.90;;;4.95;72.25;98466.34;5037202;28;20358;-39
2021/12/20 09:19:36;;;;;;;31.83;15.93;;;4.80;99.90;;;4.98;71.99;98462.63;5030338;28;20053;-39
2021/12/20 09:22:10;;;;;;;30.13;14.90;;;4.80;99.90;;;5.01;72.56;98465.91;5030969;28;20061;-40
2021/12/20 09:24:40;;;;;;;27.70;15.30;;;4.80;99.90;;;5.00;72.27;98461.59;5027589;28;20067;-39
2021/12/20 09:27:09;;;;;;;29.83;14.00;;;4.80;99.90;;;5.04;72.12;98462.22;5027002;28;20677;-40
2021/12/20 09:29:37;;;;;;;25.97;14.43;;;4.80;99.90;;;5.05;72.13;98464.75;5027298;28;20059;-41
2021/12/20 09:32:06;;;;;;;27.60;16.20;;;4.80;99.90;;;5.07;71.69;98467.28;5026237;28;20057;-40
2021/12/20 09:34:35;;;;;;;29.53;15.93;;;4.90;99.90;;;5.08;71.92;98467.19;5025473;28;20067;-39
2021/12/20 09:37:07;;;;;;;26.60;15.13;;;4.90;99.90;;;5.10;71.47;98473.19;5012021;28;20057;-39
2021/12/20 09:39:38;;;;;;;26.70;16.70;;;4.90;99.90;;;5.13;72.09;98475.63;5007308;28;20064;-39
2021/12/20 09:42:12;;;;;;;28.97;17.13;;;4.90;99.90;;;5.18;72.16;98471.84;5006050;28;20120;-39
2021/12/20 09:44:44;;;;;;;27.57;16.87;;;5.00;99.90;;;5.19;71.98;98466.41;5007050;28;20064;-39
2021/12/20 09:47:12;;;;;;;28.50;16.23;;;5.10;99.90;;;5.23;71.81;98467.06;5021381;28;20235;-39
2021/12/20 09:49:51;;;;;;;30.27;16.13;;;5.10;99.90;;;5.23;71.38;98469.69;5025826;28;20358;-39
2021/12/20 09:52:35;;;;;;;29.47;15.47;;;5.10;99.90;;;5.25;71.61;98470.44;5030547;28;20053;-39
2021/12/20 09:55:21;;;;;;;26.13;15.50;;;5.10;99.90;;;5.28;72.31;98467.59;5032888;28;20033;-39
2021/12/20 09:57:55;;;;;;;32.57;19.53;;;5.10;99.90;;;5.30;71.70;98469.16;5036502;28;20251;-39
2021/12/20 10:00:34;;;;;;;37.90;23.20;;;5.10;99.90;;;5.35;71.77;98468.00;5045595;28;20053;-39
2021/12/20 10:03:06;;;;;;;35.20;19.45;;;5.10;99.90;;;5.36;72.48;98465.25;5034190;28;20077;-39
2021/12/20 10:05:36;;;;;;;28.53;15.47;;;5.20;99.90;;;5.36;71.50;98457.31;5035425;28;20049;-39
2021/12/20 10:08:16;;;;;;;32.67;18.37;;;5.20;99.90;;;5.40;71.80;98463.25;5034960;28;20042;-39
2021/12/20 10:10:50;;;;;;;33.50;20.57;;;5.20;99.90;;;5.40;71.78;98460.59;5034702;28;20041;-40
2021/12/20 10:13:29;;;;;;;37.77;21.27;;;5.20;99.90;;;5.39;71.77;98457.13;5029711;28;20454;-39
2021/12/20 10:15:59;;;;;;;47.90;25.20;;;5.20;99.90;;;5.38;71.15;98460.69;5026118;28;20059;-39
2021/12/20 10:18:28;;;;;;;41.10;21.47;;;5.20;99.90;;;5.39;71.28;98461.53;5025478;28;20344;-39
2021/12/20 10:20:59;;;;;;;26.57;15.97;;;5.20;99.90;;;5.37;71.42;98464.31;5024862;28;20240;-39
2021/12/20 10:23:33;;;;;;;29.40;17.40;;;5.20;99.90;;;5.38;71.09;98459.88;5026702;28;20057;-39
2021/12/20 10:26:12;;;;;;;29.92;17.77;;;5.20;99.90;;;5.36;71.32;98457.31;5026755;28;20064;-39
2021/12/20 10:28:43;;;;;;;33.53;19.87;;;5.20;99.90;;;5.37;71.61;98466.94;5026459;28;20067;-38
2021/12/20 10:31:18;;;;;;;31.97;17.20;;;5.20;99.90;;;5.40;71.36;98468.53;5024423;28;20055;-38
2021/12/20 10:33:59;;;;;;;30.97;18.67;;;5.20;99.90;;;5.36;71.03;98459.97;5025233;28;20045;-38
2021/12/20 10:36:31;;;;;;;32.80;18.57;;;5.30;99.90;;;5.34;71.54;98459.22;5025500;28;20060;-39
2021/12/20 10:39:03;;;;;;;25.47;16.43;;;5.20;99.90;;;5.37;71.67;98452.88;5025394;28;20351;-39
2021/12/20 10:41:37;;;;;;;24.57;13.67;;;5.20;99.90;;;5.37;70.92;98453.75;5028443;28;20356;-39
2021/12/20 10:44:20;;;;;;;27.50;15.13;;;5.20;99.90;;;5.35;71.16;98453.00;5027772;28;20051;-39
2021/12/20 10:46:56;;;;;;;24.45;14.27;;;5.10;99.90;;;5.36;71.19;98445.94;5029149;28;20068;-39
2021/12/20 10:49:30;;;;;;;30.07;14.93;;;5.10;99.90;;;5.38;71.27;98447.50;5029746;28;20054;-39